Time;durP1;ratioP1;P1;durP2;ratioP2;P2;SDS_P1;SDS_P2;PMS_P1;PMS_P2;Temp;Humidity;BMP_temperature;BMP_pressure;BME280_temperature;BME280_humidity;BME280_pressure;Samples;Min_cycle;Max_cycle;Signal;HPM_P1;HPM_P2
2021/12/01 00:01:31;;;;;;;9.43;4.22;;;;;;;0.34;79.61;99533.43;1702719;81;21096;-81
2021/12/01 00:03:59;;;;;;;11.68;4.90;;;;;;;0.28;79.75;99536.63;1723515;83;21072;-81
2021/12/01 00:06:29;;;;;;;12.35;4.90;;;;;;;0.25;79.94;99536.47;1724067;83;21532;-81
2021/12/01 00:08:55;;;;;;;10.15;4.75;;;;;;;0.27;80.15;99540.02;1723549;83;21096;-81
2021/12/01 00:11:21;;;;;;;9.65;4.62;;;;;;;0.29;80.19;99547.85;1724013;83;21146;-80
2021/12/01 00:13:48;;;;;;;11.30;4.78;;;;;;;0.30;80.09;99553.11;1723982;83;21065;-80
2021/12/01 00:16:15;;;;;;;9.85;4.35;;;;;;;0.29;79.99;99551.73;1723992;83;21132;-80
2021/12/01 00:18:42;;;;;;;9.73;4.37;;;;;;;0.29;79.89;99557.79;1724207;83;21058;-80
2021/12/01 00:21:10;;;;;;;7.85;3.80;;;;;;;0.30;79.79;99572.52;1702559;83;21101;-80
2021/12/01 00:23:42;;;;;;;9.78;4.20;;;;;;;0.29;79.60;99580.20;1702762;83;21106;-81
2021/12/01 00:26:09;;;;;;;7.40;3.80;;;;;;;0.27;79.58;99580.13;1723112;82;20998;-82
2021/12/01 00:28:37;;;;;;;9.53;4.12;;;;;;;0.23;79.42;99591.57;1702769;83;21366;-80
2021/12/01 00:31:07;;;;;;;8.05;3.85;;;;;;;0.20;79.39;99592.30;1724190;83;21732;-80
2021/12/01 00:33:33;;;;;;;15.58;5.25;;;;;;;0.16;79.39;99593.84;1723673;83;21042;-81
2021/12/01 00:36:00;;;;;;;9.98;4.70;;;;;;;0.19;79.46;99594.42;1703654;83;21751;-81
2021/12/01 00:38:28;;;;;;;15.38;4.85;;;;;;;0.17;79.38;99591.75;1724299;83;21113;-81
2021/12/01 00:40:57;;;;;;;10.45;4.28;;;;;;;0.14;79.25;99598.48;1723919;83;21080;-81
2021/12/01 00:43:25;;;;;;;9.13;3.98;;;;;;;0.07;79.14;99593.81;1724181;83;21073;-80
2021/12/01 00:45:57;;;;;;;11.83;4.10;;;;;;;0.01;79.07;99602.17;1707477;82;21096;-81
2021/12/01 00:48:20;;;;;;;7.95;3.85;;;;;;;-0.07;79.01;99609.56;1694940;84;21740;-81
2021/12/01 00:50:48;;;;;;;7.25;3.42;;;;;;;-0.11;78.97;99614.48;1695257;84;21557;-82
2021/12/01 00:53:17;;;;;;;8.85;3.90;;;;;;;-0.17;78.91;99620.25;1695144;84;21136;-80
2021/12/01 00:55:43;;;;;;;7.37;2.98;;;;;;;-0.21;78.97;99617.03;1707513;82;21611;-80
2021/12/01 00:58:12;;;;;;;8.95;3.87;;;;;;;-0.26;78.93;99614.66;1747181;82;21022;-81
2021/12/01 01:00:41;;;;;;;7.22;3.45;;;;;;;-0.30;78.88;99608.44;1721272;83;21446;-81
2021/12/01 01:03:08;;;;;;;9.78;3.90;;;;;;;-0.36;78.83;99621.03;1733419;81;21084;-80
2021/12/01 01:05:40;;;;;;;10.28;3.87;;;;;;;-0.43;78.80;99629.32;1712459;82;21045;-81
2021/12/01 01:08:06;;;;;;;9.98;3.45;;;;;;;-0.48;78.82;99634.23;1738321;82;21670;-81
2021/12/01 01:18:49;;;;;;;8.68;3.40;;;;;;;-0.67;78.95;99650.91;1739011;81;21049;-81
2021/12/01 01:21:16;;;;;;;8.70;3.83;;;;;;;-0.72;79.00;99656.23;1734734;81;21781;-81
2021/12/01 01:24:03;;;;;;;12.18;5.20;;;;;;;-0.74;79.11;99665.61;1739092;81;21052;-81
2021/12/01 01:26:30;;;;;;;16.40;6.95;;;;;;;-0.76;79.21;99668.11;1738836;82;21958;-81
2021/12/01 01:28:56;;;;;;;11.65;5.45;;;;;;;-0.77;79.35;99665.02;1713471;82;21605;-81
2021/12/01 01:31:25;;;;;;;13.38;5.45;;;;;;;-0.80;79.41;99667.47;1712034;82;21053;-81
2021/12/01 01:33:52;;;;;;;11.90;6.03;;;;;;;-0.82;79.52;99661.34;1738922;82;21064;-81
2021/12/01 01:36:21;;;;;;;13.48;6.40;;;;;;;-0.84;79.61;99672.87;1738831;82;21060;-80
2021/12/01 01:38:51;;;;;;;11.25;5.78;;;;;;;-0.85;79.67;99672.79;1738743;82;21813;-81
2021/12/01 01:41:17;;;;;;;11.55;5.10;;;;;;;-0.87;79.71;99680.45;1737970;82;21029;-81
2021/12/01 01:43:46;;;;;;;10.65;5.40;;;;;;;-1.00;79.72;99666.40;1738642;81;21076;-81
2021/12/01 01:46:17;;;;;;;12.43;5.42;;;;;;;-0.94;79.77;99679.64;1711899;81;21339;-81
2021/12/01 01:48:53;;;;;;;8.23;4.65;;;;;;;-0.95;79.84;99679.17;1738907;81;21085;-81
2021/12/01 01:51:19;;;;;;;7.17;4.28;;;;;;;-0.95;79.97;99692.09;1737903;82;21286;-81
2021/12/01 01:53:51;;;;;;;10.82;5.47;;;;;;;-0.96;80.00;99683.83;1738990;82;21068;-81
2021/12/01 01:56:17;;;;;;;7.53;4.10;;;;;;;-0.92;80.11;99688.38;1738746;82;21108;-81
2021/12/01 01:58:43;;;;;;;11.65;4.28;;;;;;;-0.90;80.01;99696.19;1738833;82;21171;-81
2021/12/01 02:01:56;;;;;;;9.53;4.53;;;;;;;-0.94;79.91;99695.55;1738918;81;21581;-80
2021/12/01 02:03:46;;;;;;;6.47;3.87;;;;;;;-1.01;79.84;99688.77;1707347;82;21783;-81
2021/12/01 02:06:13;;;;;;;7.87;3.92;;;;;;;-1.05;79.87;99687.21;1726613;82;21045;-80
2021/12/01 02:08:42;;;;;;;10.25;4.17;;;;;;;-1.10;79.88;99688.27;1699672;83;21344;-80
2021/12/01 02:11:16;;;;;;;12.70;4.37;;;;;;;-1.15;79.86;99685.83;1697234;83;21563;-81
2021/12/01 02:13:42;;;;;;;10.18;4.78;;;;;;;-1.18;79.93;99694.72;1721036;83;21077;-82
2021/12/01 02:16:10;;;;;;;11.93;5.08;;;;;;;-1.24;79.92;99700.44;1723544;82;21823;-81
2021/12/01 02:18:39;;;;;;;10.23;4.47;;;;;;;-1.28;80.03;99701.46;1695142;83;21073;-81
2021/12/01 02:21:13;;;;;;;7.75;4.67;;;;;;;-1.33;80.07;99703.80;1721815;82;21073;-80
2021/12/01 02:23:46;;;;;;;14.83;4.50;;;;;;;-1.37;80.12;99703.13;1720712;83;21081;-80
2021/12/01 02:26:14;;;;;;;9.73;4.90;;;;;;;-1.40;80.24;99705.14;1723452;83;21073;-80
2021/12/01 02:28:42;;;;;;;9.78;4.65;;;;;;;-1.44;80.24;99704.48;1720782;83;21808;-79
2021/12/01 02:31:09;;;;;;;10.58;5.00;;;;;;;-1.48;80.28;99699.97;1723337;82;21034;-80
2021/12/01 02:33:36;;;;;;;10.10;4.72;;;;;;;-1.51;80.34;99703.66;1720756;83;21010;-79
2021/12/01 02:36:03;;;;;;;9.10;4.62;;;;;;;-1.56;80.36;99708.95;1723015;82;21093;-80
2021/12/01 02:38:30;;;;;;;11.33;4.90;;;;;;;-1.59;80.46;99717.42;1720497;83;21129;-79
2021/12/01 02:41:00;;;;;;;12.53;4.72;;;;;;;-1.62;80.48;99715.06;1723180;82;23247;-80
2021/12/01 02:43:28;;;;;;;10.10;4.55;;;;;;;-1.64;80.53;99719.25;1720727;83;21543;-80
2021/12/01 02:45:57;;;;;;;10.03;4.33;;;;;;;-1.66;80.57;99717.88;1723486;83;21080;-80
2021/12/01 02:48:24;;;;;;;10.58;4.33;;;;;;;-1.67;80.62;99729.39;1720830;83;21515;-80
2021/12/01 02:50:52;;;;;;;8.88;4.28;;;;;;;-1.69;80.65;99726.75;1723640;82;21049;-81
2021/12/01 02:53:21;;;;;;;10.32;5.78;;;;;;;-1.71;80.61;99730.91;1720398;83;22665;-81
2021/12/01 02:55:58;;;;;;;10.50;5.97;;;;;;;-1.83;80.64;99707.00;1749535;80;21070;-80
2021/12/01 02:58:26;;;;;;;17.45;8.83;;;;;;;-1.73;80.67;99726.47;1726610;82;21073;-80
2021/12/01 03:00:59;;;;;;;29.18;16.42;;;;;;;-1.76;80.70;99730.66;1726559;82;21061;-80
2021/12/01 03:03:29;;;;;;;29.85;16.77;;;;;;;-1.76;80.75;99733.23;1732421;81;21140;-80
2021/12/01 03:05:54;;;;;;;41.68;24.25;;;;;;;-1.77;80.69;99734.02;1738183;81;21875;-80
2021/12/01 03:08:23;;;;;;;36.30;22.60;;;;;;;-1.78;80.70;99736.13;1738500;82;21085;-80
2021/12/01 03:10:52;;;;;;;34.83;21.50;;;;;;;-1.80;80.57;99734.27;1738825;81;21527;-80
2021/12/01 03:13:20;;;;;;;35.13;23.22;;;;;;;-1.85;80.43;99736.98;1738333;82;21105;-80
2021/12/01 03:15:50;;;;;;;51.70;29.25;;;;;;;-1.89;80.36;99743.64;1738703;82;21348;-80
2021/12/01 03:18:16;;;;;;;68.80;42.03;;;;;;;-1.96;80.24;99746.25;1761511;81;21799;-81
2021/12/01 03:20:43;;;;;;;96.30;61.15;;;;;;;-2.01;80.22;99750.66;1761952;81;21566;-81
2021/12/01 03:23:12;;;;;;;91.80;61.50;;;;;;;-2.04;80.24;99753.95;1702925;82;21584;-81
2021/12/01 03:25:40;;;;;;;100.50;66.00;;;;;;;-2.09;80.12;99748.03;1735531;81;21118;-79
2021/12/01 03:28:10;;;;;;;82.88;53.85;;;;;;;-2.13;80.16;99749.95;1729855;82;21069;-79
2021/12/01 03:30:41;;;;;;;33.05;21.52;;;;;;;-2.18;80.16;99747.99;1761332;81;21785;-80
2021/12/01 03:33:11;;;;;;;16.45;11.97;;;;;;;-2.20;80.22;99751.26;1760845;80;21054;-79
2021/12/01 03:35:41;;;;;;;19.20;14.00;;;;;;;-2.24;80.23;99745.03;1761330;80;21096;-80
2021/12/01 03:38:10;;;;;;;15.88;12.70;;;;;;;-2.27;80.26;99742.28;1761484;80;21091;-80
2021/12/01 03:40:37;;;;;;;14.78;11.45;;;;;;;-2.28;80.29;99740.91;1761781;80;21077;-81
2021/12/01 03:43:09;;;;;;;12.35;8.18;;;;;;;-2.30;80.32;99743.79;1761061;81;21050;-81
2021/12/01 03:45:36;;;;;;;14.90;12.00;;;;;;;-2.31;80.41;99737.72;1761500;80;21054;-80
2021/12/01 03:48:03;;;;;;;12.80;7.03;;;;;;;-2.32;80.38;99742.41;1729861;82;21070;-81
2021/12/01 03:50:30;;;;;;;16.23;10.55;;;;;;;-2.34;80.32;99740.14;1761825;80;21073;-80
2021/12/01 03:52:58;;;;;;;8.75;6.25;;;;;;;-2.37;80.33;99743.80;1730151;82;21130;-81
2021/12/01 03:55:28;;;;;;;5.90;4.53;;;;;;;-2.37;80.41;99748.96;1729738;82;22568;-80
2021/12/01 03:57:53;;;;;;;8.73;3.77;;;;;;;-2.38;80.39;99748.48;1761440;80;21070;-81
2021/12/01 04:00:23;;;;;;;5.35;3.60;;;;;;;-2.39;80.44;99742.42;1729987;82;21078;-81
2021/12/01 04:02:50;;;;;;;9.45;4.58;;;;;;;-2.40;80.34;99746.22;1729714;82;21456;-81
2021/12/01 04:05:20;;;;;;;7.33;3.70;;;;;;;-2.41;80.34;99740.56;1761699;80;21786;-81
2021/12/01 04:07:45;;;;;;;8.23;4.30;;;;;;;-2.45;80.30;99738.60;1729221;82;22435;-81
2021/12/01 04:10:14;;;;;;;7.80;5.08;;;;;;;-2.47;80.31;99732.47;1729868;82;21061;-81
2021/12/01 04:12:44;;;;;;;11.22;7.15;;;;;;;-2.48;80.36;99735.83;1757651;80;21073;-81
2021/12/01 04:15:11;;;;;;;6.80;4.80;;;;;;;-2.50;80.37;99728.00;1717394;81;21034;-81
2021/12/01 04:17:38;;;;;;;9.40;4.08;;;;;;;-2.51;80.44;99736.55;1726560;81;21784;-80
2021/12/01 04:20:07;;;;;;;5.60;3.45;;;;;;;-2.53;80.41;99739.43;1731653;82;21751;-80
2021/12/01 04:22:33;;;;;;;6.53;3.17;;;;;;;-2.55;80.43;99730.72;1700700;83;21074;-80
2021/12/01 04:25:03;;;;;;;7.90;2.95;;;;;;;-2.58;80.48;99730.12;1700730;83;21089;-80
2021/12/01 04:27:30;;;;;;;9.55;4.03;;;;;;;-2.58;80.55;99725.38;1700786;84;21602;-79
2021/12/01 04:29:58;;;;;;;7.62;3.42;;;;;;;-2.59;80.63;99725.78;1651281;84;21081;-80
2021/12/01 04:32:25;;;;;;;4.03;3.15;;;;;;;-2.60;80.62;99725.68;1737207;80;21808;-79
2021/12/01 04:34:52;;;;;;;5.37;2.52;;;;;;;-2.63;80.61;99721.25;1731214;82;21096;-79
2021/12/01 04:37:19;;;;;;;5.58;3.30;;;;;;;-2.65;80.61;99729.25;1731556;81;21061;-80
2021/12/01 04:39:45;;;;;;;5.67;2.72;;;;;;;-2.70;80.57;99729.39;1759315;80;21620;-79
2021/12/01 04:42:16;;;;;;;5.35;3.20;;;;;;;-2.68;80.76;99737.19;1709317;82;21198;-79
2021/12/01 04:44:42;;;;;;;7.83;3.17;;;;;;;-2.71;80.65;99724.14;1759420;81;21783;-80
2021/12/01 04:47:17;;;;;;;7.22;3.92;;;;;;;-2.75;80.68;99724.34;1744571;80;21088;-83
2021/12/01 04:49:42;;;;;;;7.03;4.15;;;;;;;-2.78;80.67;99721.20;1750315;80;21105;-79
2021/12/01 04:52:17;;;;;;;10.43;4.28;;;;;;;-2.81;80.66;99725.27;1700092;82;21211;-79
2021/12/01 04:54:41;;;;;;;8.78;4.67;;;;;;;-2.83;80.70;99716.56;1729813;81;21109;-83
2021/12/01 04:57:10;;;;;;;11.30;5.42;;;;;;;-2.86;80.64;99715.08;1729460;82;21826;-79
2021/12/01 04:59:37;;;;;;;10.65;5.28;;;;;;;-2.89;80.68;99711.02;1729168;82;21013;-80
2021/12/01 05:02:04;;;;;;;7.28;5.45;;;;;;;-2.90;80.83;99710.54;1729197;82;21072;-81
2021/12/01 05:04:34;;;;;;;9.35;5.97;;;;;;;-2.91;80.87;99710.91;1717135;82;21041;-79
2021/12/01 05:07:01;;;;;;;16.32;8.40;;;;;;;-2.91;80.91;99717.34;1711345;82;21124;-78
2021/12/01 05:09:27;;;;;;;23.07;10.13;;;;;;;-2.93;80.80;99715.08;1712138;83;22929;-79
2021/12/01 05:11:54;;;;;;;20.57;10.43;;;;;;;-2.96;80.72;99714.50;1703988;84;21088;-79
2021/12/01 05:14:29;;;;;;;23.77;10.28;;;;;;;-3.00;80.59;99711.25;1703802;82;21630;-79
2021/12/01 05:17:05;;;;;;;24.77;10.13;;;;;;;-3.03;80.62;99708.88;1729500;82;21064;-80
2021/12/01 05:19:35;;;;;;;19.73;8.55;;;;;;;-3.06;80.61;99700.59;1732879;82;21053;-81
2021/12/01 05:22:05;;;;;;;29.95;10.15;;;;;;;-3.11;80.46;99699.41;1733392;82;21900;-81
2021/12/01 05:24:33;;;;;;;25.80;11.00;;;;;;;-3.15;80.52;99696.16;1707221;82;21664;-81
2021/12/01 05:27:00;;;;;;;29.72;16.05;;;;;;;-3.16;80.58;99695.23;1732996;82;21055;-86
2021/12/01 05:29:28;;;;;;;30.15;13.40;;;;;;;-3.16;80.71;99699.10;1707571;82;21546;-84
2021/12/01 05:31:55;;;;;;;27.98;13.32;;;;;;;-3.17;80.81;99699.91;1733968;82;21112;-88
2021/12/01 05:34:24;;;;;;;21.62;10.55;;;;;;;-3.16;80.86;99703.36;1733885;82;21761;-79
2021/12/01 05:36:51;;;;;;;20.30;11.12;;;;;;;-3.17;80.93;99697.75;1733292;82;21490;-79
2021/12/01 05:39:22;;;;;;;22.52;11.30;;;;;;;-3.14;80.97;99700.48;1733107;81;21061;-79
2021/12/01 05:41:50;;;;;;;17.75;10.03;;;;;;;-3.15;80.98;99698.73;1733479;82;21237;-79
2021/12/01 05:44:20;;;;;;;12.78;7.28;;;;;;;-3.15;80.99;99698.73;1733534;82;21981;-79
2021/12/01 05:46:49;;;;;;;30.77;15.58;;;;;;;-3.15;80.97;99704.76;1709804;82;21115;-79
2021/12/01 05:49:17;;;;;;;108.57;63.90;;;;;;;-3.13;81.00;99707.43;1707530;82;21136;-81
2021/12/01 05:51:44;;;;;;;256.80;130.40;;;;;;;-3.15;81.00;99717.63;1733965;82;21065;-80
2021/12/01 05:54:13;;;;;;;132.50;69.12;;;;;;;-3.15;81.00;99721.48;1733776;81;21057;-81
2021/12/01 05:56:40;;;;;;;136.60;66.92;;;;;;;-3.14;81.01;99728.39;1733866;81;21554;-80
2021/12/01 05:59:06;;;;;;;136.15;72.37;;;;;;;-3.13;81.02;99724.16;1733362;82;21715;-83
2021/12/01 06:01:37;;;;;;;166.85;88.22;;;;;;;-3.14;81.11;99722.37;1733813;82;21319;-81
2021/12/01 06:04:07;;;;;;;64.45;33.38;;;;;;;-3.07;81.08;99735.23;1730601;81;21357;-80
2021/12/01 06:06:37;;;;;;;31.95;17.42;;;;;;;-3.06;81.11;99734.05;1725933;83;21073;-81
2021/12/01 06:09:05;;;;;;;49.42;25.88;;;;;;;-3.04;81.17;99732.46;1725611;83;21073;-81
2021/12/01 06:11:40;;;;;;;16.12;10.15;;;;;;;-3.04;81.06;99735.03;1726680;82;21030;-80
2021/12/01 06:14:06;;;;;;;15.03;8.08;;;;;;;-3.04;80.98;99736.33;1724827;82;21073;-79
2021/12/01 06:16:33;;;;;;;12.40;5.55;;;;;;;-3.09;80.91;99727.41;1726051;83;21089;-79
2021/12/01 06:19:02;;;;;;;12.55;7.25;;;;;;;-3.10;80.95;99730.77;1725981;83;21073;-78
2021/12/01 06:21:28;;;;;;;13.60;8.30;;;;;;;-3.08;81.00;99729.58;1725653;83;22065;-77
2021/12/01 06:23:55;;;;;;;13.93;7.05;;;;;;;-3.11;80.94;99727.72;1725995;83;22516;-77
2021/12/01 06:26:25;;;;;;;12.98;7.10;;;;;;;-3.11;80.94;99717.83;1725568;83;21124;-78
2021/12/01 06:28:51;;;;;;;23.25;14.18;;;;;;;-3.13;80.97;99713.46;1725945;83;21061;-77
2021/12/01 06:31:20;;;;;;;16.07;7.37;;;;;;;-3.13;81.01;99713.87;1725572;82;21678;-77
2021/12/01 06:33:50;;;;;;;25.43;14.23;;;;;;;-3.12;81.08;99715.62;1703167;83;21081;-77
2021/12/01 06:36:19;;;;;;;16.12;7.90;;;;;;;-3.14;81.03;99711.66;1725889;83;22445;-78
2021/12/01 06:38:49;;;;;;;15.43;7.15;;;;;;;-3.11;81.11;99704.95;1726164;83;21010;-77
2021/12/01 06:41:14;;;;;;;21.68;11.97;;;;;;;-3.08;81.29;99707.70;1725780;83;21547;-77
2021/12/01 06:43:42;;;;;;;17.40;8.03;;;;;;;-3.01;81.37;99711.16;1726363;83;21455;-80
2021/12/01 06:46:09;;;;;;;19.17;9.13;;;;;;;-2.98;81.31;99699.77;1726234;83;21559;-80
2021/12/01 06:48:38;;;;;;;28.50;15.88;;;;;;;-2.95;81.33;99698.65;1726047;83;22367;-80
2021/12/01 06:51:04;;;;;;;29.02;17.45;;;;;;;-2.89;81.37;99702.91;1725862;82;21077;-80
2021/12/01 06:53:31;;;;;;;29.32;15.20;;;;;;;-2.83;81.36;99707.55;1726381;82;21642;-80
2021/12/01 06:55:59;;;;;;;32.98;17.82;;;;;;;-2.74;81.55;99705.50;1725761;82;21584;-80
2021/12/01 06:58:26;;;;;;;168.50;109.72;;;;;;;-2.61;81.70;99707.14;1726104;82;21065;-80
2021/12/01 07:00:56;;;;;;;38.40;20.50;;;;;;;-2.49;81.74;99710.47;1725856;82;22706;-80
2021/12/01 07:03:24;;;;;;;27.25;13.72;;;;;;;-2.35;81.88;99700.59;1726407;82;21062;-80
2021/12/01 07:05:51;;;;;;;32.48;15.43;;;;;;;-2.14;82.00;99706.49;1725707;81;21081;-80
2021/12/01 07:08:18;;;;;;;29.37;14.53;;;;;;;-1.98;81.94;99701.44;1725959;83;22328;-80
2021/12/01 07:10:44;;;;;;;24.52;11.70;;;;;;;-1.83;81.84;99704.02;1726145;83;21089;-80
2021/12/01 07:13:11;;;;;;;21.20;9.95;;;;;;;-1.70;81.69;99700.85;1726126;83;21749;-80
2021/12/01 07:15:39;;;;;;;18.67;9.25;;;;;;;-1.66;81.50;99698.93;1702579;83;21112;-80
2021/12/01 07:18:07;;;;;;;17.85;9.55;;;;;;;-1.62;81.40;99689.27;1726024;83;21073;-80
2021/12/01 07:20:33;;;;;;;20.25;10.85;;;;;;;-1.59;81.34;99682.58;1703163;83;21129;-80
2021/12/01 07:23:02;;;;;;;17.30;8.03;;;;;;;-1.54;81.25;99679.37;1726055;82;21042;-80
2021/12/01 07:25:29;;;;;;;17.75;8.18;;;;;;;-1.49;81.33;99681.40;1726047;82;21955;-77
2021/12/01 07:27:58;;;;;;;20.27;9.83;;;;;;;-1.40;81.36;99687.48;1702272;83;21368;-80
2021/12/01 07:30:27;;;;;;;16.23;8.80;;;;;;;-1.32;81.36;99677.16;1725900;83;21076;-80
2021/12/01 07:32:53;;;;;;;19.87;8.60;;;;;;;-1.26;81.27;99668.48;1725849;83;21282;-80
2021/12/01 07:35:20;;;;;;;15.43;7.75;;;;;;;-1.18;81.33;99663.73;1725669;83;21053;-77
2021/12/01 07:37:50;;;;;;;17.62;8.70;;;;;;;-1.08;81.35;99660.83;1725866;83;22355;-77
2021/12/01 07:40:17;;;;;;;16.45;8.63;;;;;;;-0.99;81.28;99662.61;1725449;83;21081;-77
2021/12/01 07:42:44;;;;;;;21.42;13.88;;;;;;;-0.91;81.25;99659.14;1725701;83;21061;-77
2021/12/01 07:45:11;;;;;;;19.87;9.50;;;;;;;-0.84;81.17;99663.83;1725671;83;21618;-77
2021/12/01 07:47:37;;;;;;;20.23;9.95;;;;;;;-0.75;81.08;99656.98;1725862;83;21073;-77
2021/12/01 07:50:06;;;;;;;26.00;13.72;;;;;;;-0.65;81.20;99655.76;1725988;83;21756;-77
2021/12/01 07:52:32;;;;;;;24.87;13.25;;;;;;;-0.51;81.25;99656.45;1726199;82;21038;-77
2021/12/01 07:54:59;;;;;;;27.77;12.33;;;;;;;-0.35;81.21;99645.22;1726033;83;21098;-77
2021/12/01 07:57:26;;;;;;;24.65;11.53;;;;;;;-0.25;81.11;99644.86;1725819;83;21033;-77
2021/12/01 07:59:53;;;;;;;21.33;10.15;;;;;;;-0.16;81.01;99649.20;1725959;83;21053;-77
2021/12/01 08:02:19;;;;;;;20.80;10.65;;;;;;;-0.09;80.91;99654.28;1725480;83;21783;-78
2021/12/01 08:04:46;;;;;;;25.12;11.10;;;;;;;-0.06;80.75;99654.41;1729244;82;20978;-77
2021/12/01 08:07:13;;;;;;;28.07;12.23;;;;;;;-0.04;80.80;99656.67;1737294;82;21056;-77
2021/12/01 08:09:49;;;;;;;21.10;12.05;;;;;;;0.00;80.81;99641.81;1737660;82;21627;-77
2021/12/01 08:12:14;;;;;;;25.55;13.62;;;;;;;0.03;80.77;99632.00;1737238;82;21084;-77
2021/12/01 08:14:41;;;;;;;21.93;12.75;;;;;;;0.07;80.88;99624.45;1737840;82;21744;-77
2021/12/01 08:17:11;;;;;;;26.45;13.80;;;;;;;0.13;80.77;99627.73;1737583;82;21048;-77
2021/12/01 08:19:37;;;;;;;25.88;14.28;;;;;;;0.15;80.71;99617.97;1737095;81;21014;-77
2021/12/01 08:22:05;;;;;;;32.38;17.62;;;;;;;0.23;80.81;99620.04;1737557;81;21154;-77
2021/12/01 08:24:32;;;;;;;36.15;18.02;;;;;;;0.31;80.86;99612.22;1737447;81;21060;-77
2021/12/01 08:26:59;;;;;;;31.95;16.95;;;;;;;0.40;80.92;99609.19;1737569;82;21770;-77
2021/12/01 08:29:25;;;;;;;31.80;16.65;;;;;;;0.49;80.89;99613.47;1737411;82;21072;-77
2021/12/01 08:31:53;;;;;;;43.23;22.15;;;;;;;0.55;80.78;99620.26;1737637;81;21049;-77
2021/12/01 08:34:22;;;;;;;46.73;25.27;;;;;;;0.61;80.77;99611.47;1737635;82;21574;-77
2021/12/01 08:36:48;;;;;;;30.72;18.32;;;;;;;0.68;80.85;99606.18;1737620;81;22263;-77
2021/12/01 08:39:18;;;;;;;38.88;19.62;;;;;;;0.79;80.87;99601.08;1737662;82;21615;-77
2021/12/01 08:41:44;;;;;;;27.65;15.18;;;;;;;0.90;80.95;99595.06;1737164;82;21641;-77
2021/12/01 08:44:10;;;;;;;24.25;14.20;;;;;;;1.01;80.89;99599.02;1737837;82;21543;-77
2021/12/01 08:46:37;;;;;;;25.20;12.88;;;;;;;1.10;80.83;99594.67;1737658;82;21150;-77
2021/12/01 08:49:04;;;;;;;22.27;12.82;;;;;;;1.24;80.95;99589.69;1737800;82;21093;-77
2021/12/01 08:51:31;;;;;;;29.82;13.78;;;;;;;1.35;80.90;99589.73;1737684;81;21744;-77
2021/12/01 08:53:57;;;;;;;27.13;14.83;;;;;;;1.45;80.74;99588.42;1737506;81;21096;-77
2021/12/01 08:56:24;;;;;;;24.77;13.50;;;;;;;1.55;80.67;99581.91;1737759;81;21140;-77
2021/12/01 08:58:51;;;;;;;29.20;15.58;;;;;;;1.62;80.56;99585.66;1737614;81;21238;-77
2021/12/01 09:01:17;;;;;;;30.55;16.67;;;;;;;1.68;80.44;99583.31;1737602;82;21124;-77
2021/12/01 09:03:44;;;;;;;28.83;15.15;;;;;;;1.74;80.37;99570.59;1737463;81;21972;-77
2021/12/01 09:06:11;;;;;;;32.13;17.12;;;;;;;1.81;80.34;99571.32;1737209;81;21522;-77
2021/12/01 09:08:39;;;;;;;30.35;16.97;;;;;;;1.89;80.29;99569.91;1737749;81;21088;-78
2021/12/01 09:11:06;;;;;;;31.48;17.60;;;;;;;1.98;80.35;99562.92;1737634;81;21547;-78
2021/12/01 09:13:35;;;;;;;29.23;15.20;;;;;;;2.08;80.32;99552.09;1737615;81;21052;-78
2021/12/01 09:16:03;;;;;;;23.80;14.93;;;;;;;2.16;80.24;99556.29;1738215;82;21758;-78
2021/12/01 09:18:30;;;;;;;23.95;15.23;;;;;;;2.23;80.09;99557.39;1737672;82;21136;-78
2021/12/01 09:20:58;;;;;;;31.40;17.98;;;;;;;2.29;80.14;99556.33;1737710;82;21729;-78
2021/12/01 09:23:27;;;;;;;26.73;16.15;;;;;;;2.34;80.04;99543.12;1737537;82;21131;-78
2021/12/01 09:25:53;;;;;;;30.20;16.12;;;;;;;2.42;80.05;99544.70;1737957;82;21094;-78
2021/12/01 09:28:23;;;;;;;39.15;19.10;;;;;;;2.50;79.98;99544.18;1737817;82;22553;-78
2021/12/01 09:30:51;;;;;;;29.15;17.20;;;;;;;2.56;79.71;99545.25;1738087;81;21069;-78
2021/12/01 09:33:18;;;;;;;27.73;16.32;;;;;;;2.53;79.49;99546.91;1737690;81;21120;-78
2021/12/01 09:35:45;;;;;;;26.65;16.95;;;;;;;2.47;79.60;99526.30;1737683;81;21617;-78
2021/12/01 09:38:14;;;;;;;29.65;16.93;;;;;;;2.62;79.57;99540.27;1737749;82;21081;-78
2021/12/01 09:40:44;;;;;;;34.88;16.62;;;;;;;2.67;79.54;99538.31;1737619;81;21880;-78
2021/12/01 09:43:12;;;;;;;27.35;16.93;;;;;;;2.76;79.75;99539.47;1737462;81;21077;-78
2021/12/01 09:45:39;;;;;;;28.77;17.27;;;;;;;2.87;79.69;99532.55;1737500;81;21116;-78
2021/12/01 09:48:06;;;;;;;23.80;15.43;;;;;;;2.96;79.61;99533.28;1737484;81;21061;-78
2021/12/01 09:50:32;;;;;;;23.47;14.98;;;;;;;3.02;79.53;99524.42;1737783;82;21049;-78
2021/12/01 09:52:59;;;;;;;21.33;13.65;;;;;;;3.05;79.31;99515.41;1737532;81;21764;-78
2021/12/01 09:55:26;;;;;;;24.92;14.38;;;;;;;3.07;79.13;99519.38;1737365;82;21076;-78
2021/12/01 09:57:56;;;;;;;24.45;14.18;;;;;;;3.09;78.95;99515.11;1737610;81;21100;-78
2021/12/01 10:00:23;;;;;;;23.02;13.95;;;;;;;3.08;78.97;99512.94;1735934;82;21092;-78
2021/12/01 10:02:50;;;;;;;23.05;13.60;;;;;;;3.13;78.96;99513.08;1737442;81;21069;-77
2021/12/01 10:06:02;;;;;;;24.23;13.40;;;;;;;3.16;78.85;99502.80;1734563;81;21804;-77
2021/12/01 10:08:42;;;;;;;26.87;15.38;;;;;;;3.17;78.75;99501.95;1726076;83;21514;-77
2021/12/01 10:11:24;;;;;;;32.75;16.27;;;;;;;3.22;78.84;99496.92;1725950;83;21602;-77
2021/12/01 10:13:55;;;;;;;28.77;16.70;;;;;;;3.22;78.60;99493.89;1725822;83;21100;-77
2021/12/01 10:16:22;;;;;;;24.60;14.28;;;;;;;3.21;78.54;99488.25;1725748;83;21069;-77
2021/12/01 10:18:52;;;;;;;44.15;22.95;;;;;;;3.22;78.61;99486.09;1725859;83;21765;-77
2021/12/01 10:21:41;;;;;;;33.98;18.55;;;;;;;3.23;78.53;99471.36;1724813;82;21033;-79
2021/12/01 10:24:11;;;;;;;28.60;15.63;;;;;;;3.18;78.37;99471.23;1725756;83;21096;-79
2021/12/01 10:26:53;;;;;;;45.90;20.27;;;;;;;3.13;78.37;99466.70;1725848;83;21124;-79
2021/12/01 10:29:25;;;;;;;40.43;20.35;;;;;;;3.05;78.31;99466.44;1726111;83;21133;-79
2021/12/01 10:31:56;;;;;;;33.15;16.35;;;;;;;3.01;78.39;99458.95;1725922;83;22776;-79
2021/12/01 10:34:31;;;;;;;35.73;17.05;;;;;;;2.96;78.35;99466.13;1725774;82;21128;-80
2021/12/01 10:37:29;;;;;;;39.27;17.15;;;;;;;2.91;78.40;99460.36;1725918;82;21081;-79
2021/12/01 10:40:24;;;;;;;19.15;10.15;;;;;;;2.90;78.53;99453.38;1726086;83;21714;-79
2021/12/01 10:43:00;;;;;;;12.55;8.68;;;;;;;2.91;78.58;99441.29;1726124;83;21081;-79
2021/12/01 10:45:42;;;;;;;13.38;9.88;;;;;;;2.91;78.72;99444.77;1726229;82;21703;-79
2021/12/01 10:48:10;;;;;;;17.02;10.58;;;;;;;2.91;78.62;99434.36;1720658;82;21152;-79
2021/12/01 10:50:42;;;;;;;18.12;10.28;;;;;;;2.88;78.67;99434.25;1703543;83;21650;-79
2021/12/01 10:53:14;;;;;;;17.37;11.35;;;;;;;2.89;78.78;99425.63;1725991;83;21090;-77
2021/12/01 10:55:47;;;;;;;19.85;11.95;;;;;;;2.87;78.79;99419.50;1725738;82;21088;-77
2021/12/01 10:58:15;;;;;;;19.42;12.45;;;;;;;2.86;78.77;99416.42;1725758;83;22753;-77
2021/12/01 11:00:47;;;;;;;19.73;12.50;;;;;;;2.83;78.73;99407.20;1725657;83;22331;-79
2021/12/01 11:03:24;;;;;;;23.45;12.15;;;;;;;2.81;78.78;99402.80;1726162;83;21072;-79
2021/12/01 11:06:13;;;;;;;20.43;12.03;;;;;;;2.78;78.84;99393.20;1729989;81;21177;-79
2021/12/01 11:08:42;;;;;;;23.05;13.40;;;;;;;2.78;78.90;99389.30;1737998;81;21596;-79
2021/12/01 11:11:17;;;;;;;22.58;13.43;;;;;;;2.79;79.01;99384.55;1738002;81;21784;-79
2021/12/01 11:13:46;;;;;;;21.05;13.85;;;;;;;2.80;79.06;99370.75;1737673;81;21017;-78
2021/12/01 11:16:15;;;;;;;20.52;12.75;;;;;;;2.82;79.08;99359.98;1738092;81;21076;-77
2021/12/01 11:18:50;;;;;;;26.77;14.63;;;;;;;2.83;79.01;99355.23;1737835;82;21606;-78
2021/12/01 11:21:22;;;;;;;20.68;12.82;;;;;;;2.81;79.00;99355.60;1737816;81;21131;-77
2021/12/01 11:23:55;;;;;;;21.97;13.93;;;;;;;2.79;78.99;99351.20;1737801;81;21789;-78
2021/12/01 11:26:27;;;;;;;21.68;14.03;;;;;;;2.79;79.04;99346.00;1737698;82;22322;-78
2021/12/01 11:29:02;;;;;;;24.32;15.23;;;;;;;2.82;79.19;99333.13;1737690;82;21076;-78
2021/12/01 11:31:38;;;;;;;21.02;14.65;;;;;;;2.84;79.05;99337.52;1737857;82;21088;-77
2021/12/01 11:34:11;;;;;;;20.95;14.00;;;;;;;2.83;79.08;99323.17;1737417;82;21092;-78
2021/12/01 11:36:40;;;;;;;23.67;15.13;;;;;;;2.86;79.19;99316.79;1737010;82;22629;-77
2021/12/01 11:39:22;;;;;;;22.07;14.78;;;;;;;2.86;79.07;99310.30;1737752;81;21538;-78
2021/12/01 11:41:46;;;;;;;24.98;15.63;;;;;;;2.87;79.12;99300.34;1736371;81;21112;-77